N9844W -KLVN

Flight info

Callsign N9844W
Flight time N/A
Altitude VFR
Route
Aircraft P28A/L-DOV/C

Departure

Time N/A
Airport -

Arrival

Time 2026-04-17 05:55
Airport Airlake Airport (KLVN)
Time Latitude Longitude Altitude Speed Heading
2026-04-17 04:17 40.88182 -95.72915 7526 ft 177 kts 24°
2026-04-17 04:18 40.89289 -95.72223 7525 ft 175 kts 24°
2026-04-17 04:18 40.90394 -95.71533 7525 ft 176 kts 24°
2026-04-17 04:18 40.91489 -95.70849 7528 ft 176 kts 24°
2026-04-17 04:18 40.92595 -95.70157 7526 ft 175 kts 23°
2026-04-17 04:19 40.93700 -95.69466 7526 ft 176 kts 24°
2026-04-17 04:19 40.94808 -95.68773 7521 ft 176 kts 24°
2026-04-17 04:19 40.95916 -95.68079 7522 ft 175 kts 23°
2026-04-17 04:19 40.97019 -95.67388 7521 ft 175 kts 24°
2026-04-17 04:20 40.98120 -95.66699 7520 ft 175 kts 24°
2026-04-17 04:20 40.99221 -95.66009 7519 ft 175 kts 24°
2026-04-17 04:20 41.00307 -95.65327 7521 ft 174 kts 23°
2026-04-17 04:20 41.01406 -95.64639 7521 ft 174 kts 24°
2026-04-17 04:21 41.02503 -95.63951 7517 ft 175 kts 24°
2026-04-17 04:21 41.03601 -95.63261 7509 ft 174 kts 23°
2026-04-17 04:21 41.04700 -95.62571 7507 ft 174 kts 23°
2026-04-17 04:21 41.05778 -95.61894 7510 ft 174 kts 23°
2026-04-17 04:22 41.06874 -95.61205 7510 ft 174 kts 24°
2026-04-17 04:22 41.07970 -95.60517 7510 ft 174 kts 24°
2026-04-17 04:22 41.09065 -95.59828 7508 ft 174 kts 24°
2026-04-17 04:22 41.10158 -95.59140 7508 ft 173 kts 24°
2026-04-17 04:23 41.11247 -95.58455 7509 ft 173 kts 24°
2026-04-17 04:23 41.12337 -95.57769 7511 ft 173 kts 24°
2026-04-17 04:23 41.13412 -95.57092 7510 ft 173 kts 24°
2026-04-17 04:23 41.14502 -95.56405 7510 ft 173 kts 23°
2026-04-17 04:24 41.15591 -95.55719 7509 ft 173 kts 23°
2026-04-17 04:24 41.16678 -95.55034 7510 ft 172 kts 24°
2026-04-17 04:24 41.17763 -95.54349 7510 ft 172 kts 23°
2026-04-17 04:24 41.18844 -95.53668 7509 ft 172 kts 24°
2026-04-17 04:25 41.19922 -95.52987 7509 ft 172 kts 24°
2026-04-17 04:25 41.21002 -95.52305 7511 ft 172 kts 24°
2026-04-17 04:25 41.22080 -95.51625 7511 ft 171 kts 24°
2026-04-17 04:25 41.23160 -95.50942 7509 ft 171 kts 23°
2026-04-17 04:26 41.24237 -95.50261 7507 ft 171 kts 24°
2026-04-17 04:26 41.25298 -95.49591 7508 ft 171 kts 23°
2026-04-17 04:26 41.26374 -95.48910 7508 ft 171 kts 24°
2026-04-17 04:26 41.27448 -95.48230 7508 ft 171 kts 23°
2026-04-17 04:27 41.28518 -95.47553 7508 ft 170 kts 24°
2026-04-17 04:27 41.29583 -95.46879 7505 ft 169 kts 23°
2026-04-17 04:27 41.30646 -95.46206 7510 ft 168 kts 23°
2026-04-17 04:27 41.31706 -95.45534 7508 ft 169 kts 23°
2026-04-17 04:28 41.32766 -95.44862 7506 ft 169 kts 23°
2026-04-17 04:28 41.33826 -95.44190 7506 ft 168 kts 23°
2026-04-17 04:28 41.34871 -95.43527 7521 ft 169 kts 23°
2026-04-17 04:28 41.35933 -95.42853 7522 ft 169 kts 23°
2026-04-17 04:29 41.36996 -95.42179 7521 ft 168 kts 23°
2026-04-17 04:29 41.38055 -95.41506 7524 ft 168 kts 22°
2026-04-17 04:29 41.39114 -95.40833 7530 ft 168 kts 23°
2026-04-17 04:29 41.40155 -95.40171 7533 ft 168 kts 22°
2026-04-17 04:30 41.41207 -95.39503 7533 ft 167 kts 23°
2026-04-17 04:30 41.42261 -95.38832 7532 ft 168 kts 23°
2026-04-17 04:30 41.43311 -95.38164 7534 ft 167 kts 22°
2026-04-17 04:30 41.44365 -95.37494 7535 ft 167 kts 22°
2026-04-17 04:31 41.45414 -95.36826 7535 ft 166 kts 22°
2026-04-17 04:31 41.46446 -95.36168 7539 ft 166 kts 22°
2026-04-17 04:31 41.47495 -95.35500 7539 ft 166 kts 22°
2026-04-17 04:31 41.48539 -95.34835 7541 ft 166 kts 22°
2026-04-17 04:32 41.49585 -95.34168 7544 ft 167 kts 22°
2026-04-17 04:32 41.50619 -95.33509 7541 ft 167 kts 22°
2026-04-17 04:32 41.51669 -95.32838 7542 ft 166 kts 22°
2026-04-17 04:32 41.52712 -95.32173 7542 ft 166 kts 22°
2026-04-17 04:33 41.53752 -95.31509 7541 ft 166 kts 22°
2026-04-17 04:33 41.54795 -95.30843 7541 ft 165 kts 22°
2026-04-17 04:33 41.55820 -95.30187 7541 ft 165 kts 22°
2026-04-17 04:33 41.56851 -95.29528 7542 ft 164 kts 22°
2026-04-17 04:34 41.58910 -95.28212 7541 ft 164 kts 22°
2026-04-17 04:34 41.59942 -95.27552 7542 ft 164 kts 22°
2026-04-17 04:34 41.60973 -95.26892 7541 ft 164 kts 22°
2026-04-17 04:35 41.62005 -95.26231 7542 ft 163 kts 22°
2026-04-17 04:35 41.63018 -95.25583 7543 ft 164 kts 22°
2026-04-17 04:35 41.64046 -95.24924 7541 ft 164 kts 22°
2026-04-17 04:35 41.65073 -95.24265 7541 ft 163 kts 22°
2026-04-17 04:36 41.66098 -95.23608 7539 ft 163 kts 22°
2026-04-17 04:36 41.67122 -95.22952 7541 ft 163 kts 22°
2026-04-17 04:36 41.68146 -95.22294 7541 ft 163 kts 21°
2026-04-17 04:36 41.69166 -95.21640 7535 ft 162 kts 22°
2026-04-17 04:37 41.70183 -95.20986 7536 ft 162 kts 22°
2026-04-17 04:37 41.71190 -95.20340 7536 ft 162 kts 22°
2026-04-17 04:37 41.72211 -95.19684 7534 ft 163 kts 22°
2026-04-17 04:37 41.73234 -95.19026 7536 ft 163 kts 21°
2026-04-17 04:38 41.74255 -95.18370 7532 ft 162 kts 22°
2026-04-17 04:38 41.75274 -95.17714 7547 ft 162 kts 21°
2026-04-17 04:38 41.76282 -95.17066 7543 ft 162 kts 21°
2026-04-17 04:38 41.77301 -95.16410 7545 ft 162 kts 22°
2026-04-17 04:39 41.78318 -95.15755 7544 ft 161 kts 21°
2026-04-17 04:39 41.79318 -95.15111 7544 ft 161 kts 22°
2026-04-17 04:39 41.80333 -95.14457 7547 ft 161 kts 21°
2026-04-17 04:39 41.81344 -95.13805 7549 ft 161 kts 21°
2026-04-17 04:40 41.82343 -95.13161 7547 ft 161 kts 21°
2026-04-17 04:40 41.83355 -95.12508 7546 ft 160 kts 21°
2026-04-17 04:40 41.84362 -95.11858 7545 ft 160 kts 21°
2026-04-17 04:40 41.85369 -95.11209 7547 ft 160 kts 21°
2026-04-17 04:41 41.86372 -95.10561 7546 ft 160 kts 21°
2026-04-17 04:41 41.87364 -95.09920 7539 ft 160 kts 21°
2026-04-17 04:41 41.88369 -95.09270 7540 ft 159 kts 21°
2026-04-17 04:41 41.89370 -95.08623 7539 ft 159 kts 21°
2026-04-17 04:42 41.90365 -95.07980 7535 ft 158 kts 21°
2026-04-17 04:42 41.91345 -95.07346 7538 ft 158 kts 21°
2026-04-17 04:42 41.92339 -95.06703 7525 ft 158 kts 21°
2026-04-17 04:42 41.93331 -95.06061 7539 ft 158 kts 21°
2026-04-17 04:43 41.94323 -95.05419 7536 ft 158 kts 21°
2026-04-17 04:43 41.95314 -95.04777 7539 ft 158 kts 21°
2026-04-17 04:43 41.95971 -95.04351 7540 ft 158 kts 21°
2026-04-17 04:43 41.97284 -95.03500 7535 ft 158 kts 21°
2026-04-17 04:44 41.98280 -95.02854 7506 ft 159 kts 21°
2026-04-17 04:44 41.98951 -95.02419 7511 ft 158 kts 21°
2026-04-17 04:44 41.99941 -95.01776 7514 ft 158 kts 21°
2026-04-17 04:44 42.00919 -95.01142 7507 ft 157 kts 21°
2026-04-17 04:45 42.01905 -95.00502 7510 ft 157 kts 21°
2026-04-17 04:45 42.02889 -94.99862 7511 ft 157 kts 21°
2026-04-17 04:45 42.03871 -94.99224 7512 ft 156 kts 21°
2026-04-17 04:45 42.04850 -94.98588 7513 ft 156 kts 21°
2026-04-17 04:46 42.05833 -94.97949 7514 ft 156 kts 21°
2026-04-17 04:46 42.06815 -94.97311 7512 ft 156 kts 21°
2026-04-17 04:46 42.07781 -94.96682 7516 ft 155 kts 21°
2026-04-17 04:46 42.08754 -94.96049 7515 ft 155 kts 21°
2026-04-17 04:47 42.09727 -94.95415 7515 ft 155 kts 21°
2026-04-17 04:47 42.10698 -94.94783 7515 ft 155 kts 21°
2026-04-17 04:47 42.11660 -94.94157 7517 ft 155 kts 21°
2026-04-17 04:47 42.12634 -94.93522 7514 ft 155 kts 21°
2026-04-17 04:48 42.13605 -94.92889 7515 ft 155 kts 21°
2026-04-17 04:48 42.14575 -94.92256 7515 ft 155 kts 21°
2026-04-17 04:48 42.15547 -94.91622 7512 ft 155 kts 21°
2026-04-17 04:48 42.16514 -94.90991 7513 ft 154 kts 21°
2026-04-17 04:49 42.17482 -94.90359 7512 ft 154 kts 21°
2026-04-17 04:49 42.18447 -94.89729 7512 ft 154 kts 21°
2026-04-17 04:49 42.19410 -94.89100 7511 ft 154 kts 21°
2026-04-17 04:49 42.20360 -94.88479 7509 ft 153 kts 21°
2026-04-17 04:50 42.21322 -94.87850 7509 ft 153 kts 21°
2026-04-17 04:50 42.22285 -94.87220 7508 ft 153 kts 21°
2026-04-17 04:50 42.23245 -94.86593 7508 ft 154 kts 21°
2026-04-17 04:50 42.24203 -94.85965 7508 ft 153 kts 21°
2026-04-17 04:51 42.25161 -94.85338 7508 ft 153 kts 21°
2026-04-17 04:51 42.26119 -94.84711 7506 ft 153 kts 21°
2026-04-17 04:51 42.27076 -94.84084 7508 ft 153 kts 21°
2026-04-17 04:51 42.28020 -94.83466 7507 ft 152 kts 21°
2026-04-17 04:52 42.28975 -94.82840 7505 ft 153 kts 21°
2026-04-17 04:52 42.29929 -94.82215 7505 ft 152 kts 21°
2026-04-17 04:52 42.30883 -94.81588 7508 ft 152 kts 21°
2026-04-17 04:52 42.31833 -94.80965 7504 ft 151 kts 21°
2026-04-17 04:53 42.32781 -94.80343 7506 ft 151 kts 21°
2026-04-17 04:53 42.33727 -94.79722 7507 ft 151 kts 21°
2026-04-17 04:53 42.34677 -94.79098 7497 ft 151 kts 21°
2026-04-17 04:55 42.41247 -94.74777 7504 ft 150 kts 21°
2026-04-17 04:55 42.42185 -94.74160 7493 ft 150 kts 21°
2026-04-17 04:55 42.43112 -94.73548 7495 ft 150 kts 21°
2026-04-17 04:56 42.44050 -94.72930 7501 ft 149 kts 21°
2026-04-17 04:56 42.44985 -94.72314 7503 ft 150 kts 21°
2026-04-17 04:56 42.45923 -94.71695 7507 ft 149 kts 21°
2026-04-17 04:56 42.46858 -94.71078 7505 ft 149 kts 21°
2026-04-17 04:57 42.47781 -94.70470 7506 ft 149 kts 21°
2026-04-17 04:57 42.48716 -94.69852 7504 ft 149 kts 21°
2026-04-17 04:57 42.49649 -94.69236 7497 ft 149 kts 21°
2026-04-17 04:57 42.50582 -94.68620 7504 ft 148 kts 22°
2026-04-17 04:58 42.51498 -94.68014 7512 ft 148 kts 22°
2026-04-17 04:58 42.52431 -94.67398 7503 ft 148 kts 21°
2026-04-17 04:58 42.53349 -94.66790 7512 ft 148 kts 22°
2026-04-17 04:58 42.54279 -94.66175 7515 ft 148 kts 22°
2026-04-17 04:59 42.55206 -94.65562 7509 ft 148 kts 21°
2026-04-17 04:59 42.56129 -94.64952 7511 ft 147 kts 22°
2026-04-17 04:59 42.57042 -94.64347 7515 ft 147 kts 21°
2026-04-17 04:59 42.57960 -94.63739 7515 ft 147 kts 22°
2026-04-17 05:00 42.58881 -94.63129 7513 ft 147 kts 22°
2026-04-17 05:00 42.59802 -94.62519 7514 ft 147 kts 22°
2026-04-17 05:00 42.60717 -94.61912 7515 ft 146 kts 21°
2026-04-17 05:00 42.61633 -94.61305 7514 ft 146 kts 22°
2026-04-17 05:01 42.62538 -94.60704 7511 ft 146 kts 22°
2026-04-17 05:01 42.63450 -94.60098 7517 ft 146 kts 22°
2026-04-17 05:01 42.64364 -94.59492 7506 ft 146 kts 22°
2026-04-17 05:01 42.65276 -94.58886 7513 ft 145 kts 22°
2026-04-17 05:02 42.66175 -94.58289 7515 ft 145 kts 22°
2026-04-17 05:02 42.67086 -94.57684 7512 ft 145 kts 22°
2026-04-17 05:02 42.67991 -94.57082 7518 ft 145 kts 22°
2026-04-17 05:02 42.68896 -94.56480 7509 ft 144 kts 22°
2026-04-17 05:03 42.69799 -94.55880 7516 ft 144 kts 22°
2026-04-17 05:03 42.70702 -94.55279 7508 ft 144 kts 22°
2026-04-17 05:03 42.71591 -94.54687 7519 ft 144 kts 22°
2026-04-17 05:03 42.72490 -94.54089 7516 ft 144 kts 22°
2026-04-17 05:04 42.73387 -94.53491 7514 ft 144 kts 22°
2026-04-17 05:04 42.74286 -94.52893 7513 ft 143 kts 22°
2026-04-17 05:04 42.75181 -94.52296 7514 ft 143 kts 22°
2026-04-17 05:04 42.76075 -94.51700 7514 ft 143 kts 22°
2026-04-17 05:05 42.76966 -94.51106 7514 ft 143 kts 22°
2026-04-17 05:05 42.77858 -94.50511 7510 ft 143 kts 22°
2026-04-17 05:05 42.78739 -94.49923 7512 ft 143 kts 22°
2026-04-17 05:05 42.79631 -94.49327 7507 ft 143 kts 22°
2026-04-17 05:06 42.80522 -94.48732 7509 ft 143 kts 22°
2026-04-17 05:06 42.81415 -94.48136 7505 ft 143 kts 22°
2026-04-17 05:06 42.82307 -94.47540 7504 ft 143 kts 22°
2026-04-17 05:06 42.83201 -94.46943 7506 ft 143 kts 22°
2026-04-17 05:07 42.84091 -94.46348 7505 ft 142 kts 22°
2026-04-17 05:07 42.84980 -94.45753 7502 ft 142 kts 22°
2026-04-17 05:07 42.85869 -94.45158 7497 ft 142 kts 22°
2026-04-17 05:07 42.86747 -94.44571 7501 ft 142 kts 22°
2026-04-17 05:08 42.87637 -94.43975 7501 ft 142 kts 22°
2026-04-17 05:08 42.88527 -94.43379 7499 ft 142 kts 23°
2026-04-17 05:08 42.89414 -94.42785 7498 ft 142 kts 22°
2026-04-17 05:08 42.90307 -94.42187 7492 ft 142 kts 23°
2026-04-17 05:09 42.91196 -94.41591 7497 ft 142 kts 23°
2026-04-17 05:09 42.92086 -94.40994 7498 ft 142 kts 23°
2026-04-17 05:09 42.92975 -94.40398 7495 ft 142 kts 23°
2026-04-17 05:09 42.93854 -94.39808 7493 ft 143 kts 23°
2026-04-17 05:10 42.94745 -94.39210 7492 ft 143 kts 23°
2026-04-17 05:10 42.95636 -94.38611 7493 ft 143 kts 23°
2026-04-17 05:10 42.96526 -94.38014 7487 ft 143 kts 23°
2026-04-17 05:10 42.97420 -94.37413 7489 ft 143 kts 23°
2026-04-17 05:11 42.98313 -94.36813 7492 ft 143 kts 23°
2026-04-17 05:11 42.99208 -94.36211 7484 ft 143 kts 23°
2026-04-17 05:11 43.00100 -94.35611 7488 ft 143 kts 23°
2026-04-17 05:11 43.00983 -94.35017 7481 ft 143 kts 23°
2026-04-17 05:12 43.01879 -94.34415 7489 ft 143 kts 23°
2026-04-17 05:12 43.02775 -94.33811 7485 ft 143 kts 23°
2026-04-17 05:12 43.03670 -94.33208 7485 ft 143 kts 23°
2026-04-17 05:12 43.04567 -94.32605 7482 ft 143 kts 24°
2026-04-17 05:13 43.05465 -94.32000 7488 ft 144 kts 23°
2026-04-17 05:13 43.06359 -94.31396 7483 ft 143 kts 24°
2026-04-17 05:13 43.07257 -94.30791 7483 ft 144 kts 24°
2026-04-17 05:13 43.08155 -94.30185 7484 ft 144 kts 24°
2026-04-17 05:14 43.09054 -94.29579 7481 ft 144 kts 24°
2026-04-17 05:14 43.09953 -94.28972 7488 ft 144 kts 24°
2026-04-17 05:14 43.10841 -94.28373 7481 ft 144 kts 24°
2026-04-17 05:14 43.11742 -94.27765 7484 ft 144 kts 24°
2026-04-17 05:15 43.12643 -94.27155 7482 ft 144 kts 24°
2026-04-17 05:15 43.13545 -94.26546 7485 ft 144 kts 24°
2026-04-17 05:15 43.14447 -94.25936 7483 ft 145 kts 24°
2026-04-17 05:15 43.15351 -94.25325 7481 ft 145 kts 24°
2026-04-17 05:16 43.16254 -94.24714 7483 ft 145 kts 24°
2026-04-17 05:16 43.17157 -94.24103 7482 ft 145 kts 24°
2026-04-17 05:16 43.18053 -94.23496 7483 ft 145 kts 24°
2026-04-17 05:16 43.18961 -94.22882 7486 ft 146 kts 24°
2026-04-17 05:17 43.19873 -94.22264 7486 ft 146 kts 24°
2026-04-17 05:17 43.20775 -94.21652 7487 ft 146 kts 24°
2026-04-17 05:17 43.21684 -94.21037 7484 ft 146 kts 24°
2026-04-17 05:17 43.22596 -94.20418 7484 ft 146 kts 24°
2026-04-17 05:18 43.23508 -94.19799 7482 ft 146 kts 24°
2026-04-17 05:18 43.24422 -94.19179 7485 ft 146 kts 24°
2026-04-17 05:18 43.25335 -94.18560 7481 ft 146 kts 24°
2026-04-17 05:18 43.26242 -94.17944 7486 ft 147 kts 24°
2026-04-17 05:19 43.27162 -94.17319 7485 ft 147 kts 24°
2026-04-17 05:19 43.28081 -94.16694 7477 ft 147 kts 24°
2026-04-17 05:19 43.29000 -94.16070 7479 ft 147 kts 24°
2026-04-17 05:19 43.29921 -94.15444 7486 ft 148 kts 24°
2026-04-17 05:20 43.30846 -94.14815 7479 ft 148 kts 24°
2026-04-17 05:20 43.31771 -94.14186 7483 ft 148 kts 24°
2026-04-17 05:20 43.32696 -94.13556 7482 ft 149 kts 24°
2026-04-17 05:20 43.33622 -94.12926 7481 ft 149 kts 25°
2026-04-17 05:21 43.34538 -94.12302 7479 ft 149 kts 25°
2026-04-17 05:21 43.35466 -94.11670 7479 ft 148 kts 25°
2026-04-17 05:21 43.36392 -94.11038 7476 ft 148 kts 24°
2026-04-17 05:21 43.37317 -94.10408 7481 ft 149 kts 25°
2026-04-17 05:22 43.38246 -94.09774 7483 ft 149 kts 25°
2026-04-17 05:22 43.39176 -94.09139 7479 ft 149 kts 25°
2026-04-17 05:22 43.40108 -94.08503 7471 ft 149 kts 24°
2026-04-17 05:22 43.41039 -94.07868 7475 ft 149 kts 25°
2026-04-17 05:23 43.41971 -94.07232 7469 ft 149 kts 25°
2026-04-17 05:23 43.42904 -94.06594 7476 ft 150 kts 24°
2026-04-17 05:23 43.43837 -94.05957 7473 ft 150 kts 24°
2026-04-17 05:23 43.44772 -94.05317 7473 ft 150 kts 24°
2026-04-17 05:24 43.45707 -94.04678 7478 ft 150 kts 24°
2026-04-17 05:24 43.46645 -94.04036 7469 ft 150 kts 25°
2026-04-17 05:24 43.47581 -94.03395 7466 ft 151 kts 24°
2026-04-17 05:24 43.48511 -94.02759 7473 ft 151 kts 25°
2026-04-17 05:25 43.49457 -94.02111 7471 ft 151 kts 24°
2026-04-17 05:25 43.50402 -94.01464 7470 ft 152 kts 24°
2026-04-17 05:25 43.51333 -94.00826 7472 ft 152 kts 25°
2026-04-17 05:25 43.52280 -94.00177 7470 ft 152 kts 24°
2026-04-17 05:26 43.53228 -93.99527 7472 ft 152 kts 24°
2026-04-17 05:26 43.54180 -93.98873 7462 ft 152 kts 25°
2026-04-17 05:26 43.55131 -93.98221 7471 ft 153 kts 25°
2026-04-17 05:26 43.56088 -93.97564 7471 ft 153 kts 25°
2026-04-17 05:27 43.57032 -93.96915 7472 ft 154 kts 25°
2026-04-17 05:27 43.57991 -93.96257 7472 ft 154 kts 25°
2026-04-17 05:27 43.58952 -93.95597 7473 ft 154 kts 25°
2026-04-17 05:27 43.59917 -93.94933 7470 ft 155 kts 25°
2026-04-17 05:28 43.60882 -93.94269 7470 ft 155 kts 25°
2026-04-17 05:28 43.61839 -93.93611 7469 ft 155 kts 25°
2026-04-17 05:28 43.62810 -93.92942 7468 ft 156 kts 25°
2026-04-17 05:28 43.63770 -93.92281 7470 ft 156 kts 25°
2026-04-17 05:29 43.64744 -93.91610 7472 ft 156 kts 25°
2026-04-17 05:29 43.65720 -93.90938 7471 ft 156 kts 25°
2026-04-17 05:29 43.66695 -93.90266 7465 ft 157 kts 25°
2026-04-17 05:29 43.67342 -93.89820 7467 ft 157 kts 25°
2026-04-17 05:30 43.68645 -93.88921 7467 ft 157 kts 25°
2026-04-17 05:30 43.69296 -93.88472 7468 ft 158 kts 25°
2026-04-17 05:30 43.70284 -93.87790 7466 ft 158 kts 25°
2026-04-17 05:30 43.71268 -93.87111 7468 ft 158 kts 25°
2026-04-17 05:31 43.72243 -93.86437 7469 ft 158 kts 25°
2026-04-17 05:31 43.73233 -93.85754 7471 ft 159 kts 25°
2026-04-17 05:31 43.74226 -93.85068 7466 ft 159 kts 25°
2026-04-17 05:31 43.75217 -93.84382 7465 ft 159 kts 25°
2026-04-17 05:32 43.76212 -93.83694 7467 ft 160 kts 25°
2026-04-17 05:32 43.77207 -93.83005 7466 ft 160 kts 25°
2026-04-17 05:32 43.78191 -93.82325 7463 ft 160 kts 25°
2026-04-17 05:32 43.79190 -93.81633 7465 ft 160 kts 25°
2026-04-17 05:33 43.80192 -93.80938 7470 ft 161 kts 25°
2026-04-17 05:33 43.81194 -93.80243 7471 ft 161 kts 25°
2026-04-17 05:33 43.82196 -93.79549 7469 ft 161 kts 25°
2026-04-17 05:33 43.83189 -93.78861 7471 ft 161 kts 25°
2026-04-17 05:34 43.84187 -93.78168 7497 ft 160 kts 25°
2026-04-17 05:34 43.85192 -93.77471 7495 ft 161 kts 25°
2026-04-17 05:34 43.86199 -93.76772 7494 ft 162 kts 25°
2026-04-17 05:34 43.87208 -93.76071 7499 ft 162 kts 25°
2026-04-17 05:35 43.88209 -93.75375 7499 ft 163 kts 26°
2026-04-17 05:35 43.89226 -93.74668 7501 ft 163 kts 25°
2026-04-17 05:35 43.90229 -93.73971 7498 ft 163 kts 26°
2026-04-17 05:35 43.91244 -93.73265 7499 ft 163 kts 25°
2026-04-17 05:36 43.92263 -93.72555 7503 ft 163 kts 25°
2026-04-17 05:36 43.93281 -93.71847 7503 ft 163 kts 25°
2026-04-17 05:36 43.94283 -93.71149 7504 ft 163 kts 25°
2026-04-17 05:36 43.95300 -93.70440 7504 ft 163 kts 26°
2026-04-17 05:37 43.96315 -93.69733 7506 ft 163 kts 25°
2026-04-17 05:37 43.97331 -93.69025 7508 ft 163 kts 26°
2026-04-17 05:37 43.98348 -93.68315 7507 ft 164 kts 26°
2026-04-17 05:37 43.99369 -93.67603 7509 ft 164 kts 25°
2026-04-17 05:38 44.00390 -93.66890 7509 ft 164 kts 26°
2026-04-17 05:38 44.01415 -93.66175 7511 ft 164 kts 26°
2026-04-17 05:38 44.02424 -93.65470 7514 ft 164 kts 25°
2026-04-17 05:38 44.03448 -93.64754 7512 ft 165 kts 25°
2026-04-17 05:39 44.04473 -93.64037 7513 ft 165 kts 25°
2026-04-17 05:39 44.05501 -93.63318 7512 ft 164 kts 25°
2026-04-17 05:39 44.06522 -93.62604 7515 ft 164 kts 25°
2026-04-17 05:39 44.07546 -93.61887 7511 ft 164 kts 25°
2026-04-17 05:40 44.08556 -93.61180 7513 ft 165 kts 25°
2026-04-17 05:40 44.09596 -93.60452 7429 ft 168 kts 25°
2026-04-17 05:40 44.10645 -93.59716 7329 ft 169 kts 26°
2026-04-17 05:40 44.11702 -93.58975 7236 ft 170 kts 26°
2026-04-17 05:41 44.12759 -93.58234 7135 ft 171 kts 26°
2026-04-17 05:41 44.13823 -93.57487 7039 ft 172 kts 26°
2026-04-17 05:41 44.14878 -93.56746 6931 ft 172 kts 26°
2026-04-17 05:41 44.15954 -93.55991 6839 ft 173 kts 26°
2026-04-17 05:42 44.17037 -93.55230 6742 ft 174 kts 26°
2026-04-17 05:42 44.18122 -93.54467 6621 ft 175 kts 25°
2026-04-17 05:42 44.19197 -93.53712 6501 ft 175 kts 26°
2026-04-17 05:42 44.20289 -93.52944 6381 ft 176 kts 26°
2026-04-17 05:43 44.21384 -93.52173 6266 ft 176 kts 26°
2026-04-17 05:43 44.22480 -93.51402 6143 ft 176 kts 26°
2026-04-17 05:43 44.23576 -93.50630 6012 ft 176 kts 26°
2026-04-17 05:43 44.24674 -93.49856 5880 ft 177 kts 26°
2026-04-17 05:44 44.25763 -93.49089 5759 ft 178 kts 26°
2026-04-17 05:44 44.26869 -93.48309 5638 ft 178 kts 26°
2026-04-17 05:44 44.27979 -93.47526 5510 ft 179 kts 26°
2026-04-17 05:44 44.29088 -93.46743 5384 ft 178 kts 26°
2026-04-17 05:45 44.30193 -93.45963 5264 ft 179 kts 26°
2026-04-17 05:45 44.31305 -93.45178 5147 ft 179 kts 26°
2026-04-17 05:45 44.32422 -93.44388 5016 ft 180 kts 26°
2026-04-17 05:45 44.33545 -93.43594 4894 ft 180 kts 26°
2026-04-17 05:46 44.34662 -93.42805 4777 ft 180 kts 26°
2026-04-17 05:46 44.35784 -93.42011 4651 ft 181 kts 27°
2026-04-17 05:46 44.36915 -93.41210 4530 ft 183 kts 27°
2026-04-17 05:46 44.38039 -93.40414 4405 ft 183 kts 26°
2026-04-17 05:47 44.39178 -93.39607 4277 ft 183 kts 26°
2026-04-17 05:47 44.40317 -93.38801 4152 ft 183 kts 26°
2026-04-17 05:47 44.41458 -93.37991 4029 ft 184 kts 26°
2026-04-17 05:47 44.42590 -93.37188 3910 ft 184 kts 26°
2026-04-17 05:48 44.43742 -93.36370 3784 ft 186 kts 27°
2026-04-17 05:48 44.44898 -93.35550 3666 ft 186 kts 27°
2026-04-17 05:48 44.46062 -93.34723 3541 ft 188 kts 26°
2026-04-17 05:48 44.47233 -93.33890 3419 ft 189 kts 27°
2026-04-17 05:49 44.48401 -93.33060 3294 ft 187 kts 26°
2026-04-17 05:49 44.49562 -93.32234 3170 ft 188 kts 26°
2026-04-17 05:49 44.50733 -93.31402 3048 ft 189 kts 27°
2026-04-17 05:49 44.51892 -93.30576 2931 ft 189 kts 27°
2026-04-17 05:50 44.53072 -93.29736 2804 ft 190 kts 27°
2026-04-17 05:50 44.54251 -93.28896 2683 ft 191 kts 27°
2026-04-17 05:50 44.55433 -93.28052 2564 ft 193 kts 27°
2026-04-17 05:50 44.56646 -93.27188 2436 ft 195 kts 28°
2026-04-17 05:51 44.57847 -93.26331 2319 ft 193 kts 28°
2026-04-17 05:51 44.59030 -93.25487 2198 ft 189 kts 30°
2026-04-17 05:51 44.60147 -93.24768 2038 ft 171 kts 14°
2026-04-17 05:51 44.61202 -93.25070 1971 ft 143 kts 309°
2026-04-17 05:52 44.61806 -93.26044 1984 ft 128 kts 296°
2026-04-17 05:52 44.62365 -93.26969 1977 ft 119 kts 297°
2026-04-17 05:52 44.62796 -93.27825 1956 ft 103 kts 284°
2026-04-17 05:52 44.63478 -93.28224 1868 ft 121 kts 17°
2026-04-17 05:53 44.63994 -93.27556 1762 ft 89 kts 81°
2026-04-17 05:53 44.64190 -93.26746 1672 ft 81 kts 96°
2026-04-17 05:53 44.64024 -93.26050 1545 ft 74 kts 130°
2026-04-17 05:53 44.63760 -93.25423 1414 ft 77 kts 124°
2026-04-17 05:54 44.63500 -93.24739 1197 ft 82 kts 119°
2026-04-17 05:54 44.63248 -93.24037 1094 ft 77 kts 123°
2026-04-17 05:54 44.63011 -93.23410 990 ft 69 kts 125°
2026-04-17 05:54 44.62816 -93.22886 959 ft 50 kts 118°
2026-04-17 05:55 44.62686 -93.22537 957 ft 35 kts 116°
2026-04-17 05:55 44.62610 -93.22331 957 ft 15 kts 116°
2026-04-17 05:55 44.62640 -93.22247 956 ft 11 kts 26°
2026-04-17 05:55 44.62687 -93.22294 956 ft 9 kts 296°
2026-04-17 05:56 44.62716 -93.22366 956 ft 8 kts 298°
2026-04-17 05:56 44.62738 -93.22427 957 ft 7 kts 295°
2026-04-17 05:56 44.62778 -93.22532 958 ft 14 kts 297°
2026-04-17 05:56 44.62821 -93.22651 959 ft 13 kts 297°
2026-04-17 05:57 44.62870 -93.22786 960 ft 19 kts 298°
2026-04-17 05:57 44.62911 -93.22894 960 ft 7 kts 293°
2026-04-17 05:57 44.62877 -93.22942 960 ft 12 kts 206°
2026-04-17 05:57 44.62822 -93.22985 961 ft 8 kts 207°
2026-04-17 05:58 44.62762 -93.23028 961 ft 11 kts 207°
2026-04-17 05:58 44.62723 -93.23092 961 ft 9 kts 298°
2026-04-17 05:58 44.62748 -93.23168 959 ft 8 kts 266°
2026-04-17 05:59 44.62690 -93.23265 961 ft 10 kts 207°
2026-04-17 05:59 44.62640 -93.23302 960 ft 1 kts 207°
2026-04-17 05:59 44.62639 -93.23302 960 ft 0 kts 207°